createdAt,value
2023-05-14T00:00:24.701Z,12.61
2023-05-14T00:05:28.011Z,12.54
2023-05-14T00:10:49.432Z,12.35
2023-05-14T00:16:12.355Z,12.30
2023-05-14T00:21:15.552Z,12.22
2023-05-14T00:26:18.608Z,12.21
2023-05-14T00:31:21.846Z,12.15
2023-05-14T00:36:24.996Z,12.05
2023-05-14T00:41:27.938Z,12.14
2023-05-14T00:46:31.526Z,12.17
2023-05-14T00:51:34.615Z,12.11
2023-05-14T00:56:37.582Z,12.17
2023-05-14T01:01:40.562Z,12.29
2023-05-14T01:07:12.816Z,12.37
2023-05-14T01:12:45.253Z,12.41
2023-05-14T01:17:58.336Z,12.43
2023-05-14T01:23:01.271Z,12.35
2023-05-14T01:28:18.332Z,12.39
2023-05-14T01:33:25.183Z,12.46
2023-05-14T01:38:31.960Z,12.38
2023-05-14T01:43:36.006Z,12.12
2023-05-14T01:48:39.074Z,12.01
2023-05-14T01:53:42.201Z,12.16
2023-05-14T01:58:44.948Z,12.08
2023-05-14T02:03:48.020Z,11.97
2023-05-14T02:08:51.214Z,12.07
2023-05-14T02:13:54.154Z,12.04
2023-05-14T02:18:57.153Z,11.99
2023-05-14T02:24:19.960Z,11.98
2023-05-14T02:29:22.893Z,11.98
2023-05-14T02:34:26.150Z,12.07
2023-05-14T02:39:28.978Z,12.25
2023-05-14T02:44:52.410Z,12.45
2023-05-14T02:49:55.493Z,12.61
2023-05-14T02:54:58.896Z,12.75
2023-05-14T03:00:01.764Z,12.90
2023-05-14T03:05:09.508Z,13.01
2023-05-14T03:10:12.825Z,13.24
2023-05-14T03:15:15.897Z,13.45
2023-05-14T03:20:18.851Z,13.47
2023-05-14T03:25:22.282Z,13.67
2023-05-14T03:30:25.460Z,13.66
2023-05-14T03:35:28.395Z,13.69
2023-05-14T03:40:31.298Z,14.00
2023-05-14T03:45:35.688Z,13.97
2023-05-14T03:50:39.100Z,14.02
2023-05-14T03:55:42.756Z,14.18
2023-05-14T04:00:47.723Z,14.20
2023-05-14T04:05:51.445Z,14.43
2023-05-14T04:10:55.869Z,14.56
2023-05-14T04:15:59.285Z,14.66
2023-05-14T04:21:02.682Z,14.79
2023-05-14T04:26:05.637Z,14.96
2023-05-14T04:31:08.449Z,14.80
2023-05-14T04:36:11.214Z,14.81
2023-05-14T04:41:14.083Z,14.91
2023-05-14T04:46:17.213Z,15.25
2023-05-14T04:51:20.093Z,15.41
2023-05-14T04:56:22.967Z,15.64
2023-05-14T05:01:25.915Z,15.64
2023-05-14T05:06:28.866Z,15.90
2023-05-14T05:11:32.038Z,15.91
2023-05-14T05:16:35.024Z,16.12
2023-05-14T05:21:40.420Z,16.12
2023-05-14T05:26:43.161Z,16.21
2023-05-14T05:31:46.446Z,16.35
2023-05-14T05:36:49.363Z,16.80
2023-05-14T05:41:52.194Z,16.88
2023-05-14T05:46:57.512Z,16.94
2023-05-14T05:52:00.655Z,17.41
2023-05-14T05:57:03.374Z,17.64
2023-05-14T06:02:07.193Z,18.01
2023-05-14T06:07:10.720Z,18.18
2023-05-14T06:12:14.516Z,18.07
2023-05-14T06:17:18.365Z,18.03
2023-05-14T06:22:21.353Z,18.30
2023-05-14T06:27:24.214Z,18.08
2023-05-14T06:32:27.118Z,18.17
2023-05-14T06:37:30.209Z,18.45
2023-05-14T06:42:51.918Z,18.80
2023-05-14T06:47:56.161Z,18.73
2023-05-14T06:52:59.004Z,18.61
2023-05-14T06:58:01.868Z,18.86
2023-05-14T07:03:04.863Z,18.74
2023-05-14T07:08:08.144Z,19.00
2023-05-14T07:13:11.490Z,19.09
2023-05-14T07:18:14.497Z,19.07
2023-05-14T07:23:19.771Z,19.34
2023-05-14T07:28:22.897Z,19.22
2023-05-14T07:33:26.047Z,19.63
2023-05-14T07:38:29.011Z,19.46
2023-05-14T07:43:31.933Z,19.74
2023-05-14T07:48:34.919Z,19.95
2023-05-14T07:53:37.926Z,19.82
2023-05-14T07:58:41.638Z,20.09
2023-05-14T08:03:44.759Z,20.13
2023-05-14T08:08:47.855Z,19.99
2023-05-14T08:13:51.037Z,20.23
2023-05-14T08:18:53.933Z,20.30
2023-05-14T08:23:56.964Z,20.47
2023-05-14T08:28:59.991Z,20.49
2023-05-14T08:34:02.862Z,20.60
2023-05-14T08:39:07.949Z,20.80
2023-05-14T08:44:14.769Z,20.94
2023-05-14T08:49:17.663Z,21.11
2023-05-14T08:54:24.095Z,21.00
2023-05-14T08:59:27.208Z,20.74
2023-05-14T09:04:31.962Z,20.68
2023-05-14T09:09:35.149Z,20.81
2023-05-14T09:14:38.437Z,21.32
2023-05-14T09:19:42.889Z,20.37
2023-05-14T09:25:02.776Z,20.17
2023-05-14T09:30:10.234Z,20.25
2023-05-14T09:35:21.689Z,20.62
2023-05-14T09:40:25.141Z,21.29
2023-05-14T09:45:29.681Z,21.20
2023-05-14T09:50:32.918Z,21.41
2023-05-14T09:55:37.180Z,21.14
2023-05-14T10:00:40.148Z,20.31
2023-05-14T10:05:43.354Z,19.67
2023-05-14T10:10:46.194Z,19.21
2023-05-14T10:15:58.101Z,19.27
2023-05-14T10:21:05.220Z,19.23
2023-05-14T10:26:10.196Z,19.40
2023-05-14T10:31:14.487Z,19.31
2023-05-14T10:36:21.082Z,19.58
2023-05-14T10:41:24.034Z,19.34
2023-05-14T10:46:27.018Z,20.07
2023-05-14T10:51:31.645Z,20.09
2023-05-14T10:56:34.642Z,20.26
2023-05-14T11:01:41.074Z,19.98
2023-05-14T11:06:47.185Z,20.46
2023-05-14T11:12:09.036Z,20.43
2023-05-14T11:17:12.690Z,20.14
2023-05-14T11:22:15.754Z,20.23
2023-05-14T11:27:19.683Z,20.13
2023-05-14T11:32:22.938Z,20.74
2023-05-14T11:37:25.948Z,20.49
2023-05-14T11:42:47.687Z,20.80
2023-05-14T11:47:50.782Z,20.45
2023-05-14T11:52:57.509Z,20.41
2023-05-14T11:58:00.970Z,20.73
2023-05-14T12:03:04.217Z,21.03
2023-05-14T12:08:26.261Z,20.97
2023-05-14T12:13:32.728Z,21.39
2023-05-14T12:18:36.340Z,20.71
2023-05-14T12:23:39.844Z,20.37
2023-05-14T12:28:43.746Z,19.91
2023-05-14T12:33:47.936Z,20.53
2023-05-14T12:38:51.655Z,21.08
2023-05-14T12:43:54.502Z,21.09
2023-05-14T12:48:57.838Z,21.45
2023-05-14T12:54:00.728Z,21.19
2023-05-14T12:59:03.780Z,21.36
2023-05-14T13:04:06.755Z,21.53
2023-05-14T13:09:09.764Z,21.23
2023-05-14T13:14:31.447Z,20.15
2023-05-14T13:19:34.588Z,19.58
2023-05-14T13:24:37.453Z,20.17
2023-05-14T13:29:40.444Z,19.44
2023-05-14T13:34:44.378Z,18.92
2023-05-14T13:39:48.770Z,19.28
2023-05-14T13:44:52.994Z,19.01
2023-05-14T13:49:56.707Z,19.01
2023-05-14T13:54:59.632Z,20.10
2023-05-14T14:00:05.346Z,20.47
2023-05-14T14:05:10.242Z,20.41
2023-05-14T14:10:13.171Z,20.24
2023-05-14T14:15:16.116Z,20.22
2023-05-14T14:20:19.305Z,20.83
2023-05-14T14:25:22.679Z,20.56
2023-05-14T14:30:25.937Z,20.10
2023-05-14T14:35:28.926Z,20.00
2023-05-14T14:40:33.970Z,19.52
2023-05-14T14:45:37.075Z,20.08
2023-05-14T14:50:40.110Z,19.68
2023-05-14T14:55:42.926Z,19.06
2023-05-14T15:00:46.142Z,19.21
2023-05-14T15:05:49.107Z,19.30
2023-05-14T15:10:52.370Z,18.78
2023-05-14T15:15:55.387Z,19.30
2023-05-14T15:20:58.545Z,18.70
2023-05-14T15:26:01.423Z,18.82
2023-05-14T15:31:04.713Z,18.41
2023-05-14T15:36:08.408Z,18.35
2023-05-14T15:41:11.661Z,18.61
2023-05-14T15:46:14.746Z,19.01
2023-05-14T15:51:17.788Z,18.76
2023-05-14T15:56:22.211Z,18.48
2023-05-14T16:01:25.086Z,18.24
2023-05-14T16:06:28.015Z,18.75
2023-05-14T16:11:31.480Z,18.89
2023-05-14T16:16:34.398Z,18.49
2023-05-14T16:21:37.508Z,18.21
2023-05-14T16:26:40.822Z,17.63
2023-05-14T16:31:44.021Z,17.17
2023-05-14T16:36:47.325Z,17.08
2023-05-14T16:41:50.306Z,16.80
2023-05-14T16:46:53.390Z,16.27
2023-05-14T16:51:56.329Z,15.45
2023-05-14T16:56:59.315Z,15.25
2023-05-14T17:02:02.154Z,14.94
2023-05-14T17:07:06.105Z,14.84
2023-05-14T17:12:11.312Z,14.70
2023-05-14T17:17:14.201Z,14.59
2023-05-14T17:22:17.462Z,14.48
2023-05-14T17:27:20.362Z,14.34
2023-05-14T17:32:23.265Z,14.16
2023-05-14T17:37:27.425Z,13.98
2023-05-14T17:42:30.403Z,13.76
2023-05-14T17:47:33.498Z,13.70
2023-05-14T17:52:36.836Z,13.73
2023-05-14T17:57:39.916Z,13.53
2023-05-14T18:02:42.914Z,13.35
2023-05-14T18:07:45.978Z,13.27
2023-05-14T18:12:49.850Z,13.16
2023-05-14T18:17:52.950Z,13.03
2023-05-14T18:22:57.139Z,12.84
2023-05-14T18:28:00.151Z,12.78
2023-05-14T18:33:03.613Z,12.69
2023-05-14T18:38:08.157Z,12.61
2023-05-14T18:43:13.562Z,12.53
2023-05-14T18:48:16.777Z,12.47
2023-05-14T18:53:19.765Z,12.37
2023-05-14T18:58:22.807Z,12.27
2023-05-14T19:03:26.237Z,12.09
2023-05-14T19:08:29.003Z,11.96
2023-05-14T19:13:31.926Z,11.85
2023-05-14T19:18:35.156Z,11.75
2023-05-14T19:23:38.461Z,11.63
2023-05-14T19:28:41.606Z,11.47
2023-05-14T19:33:44.588Z,11.42
2023-05-14T19:38:48.560Z,11.34
2023-05-14T19:43:51.513Z,11.30
2023-05-14T19:48:54.442Z,11.23
2023-05-14T19:53:57.431Z,11.11
2023-05-14T19:59:00.335Z,11.08
2023-05-14T20:04:03.319Z,11.05
2023-05-14T20:09:06.318Z,10.94
2023-05-14T20:14:09.387Z,10.94
2023-05-14T20:19:13.884Z,10.85
2023-05-14T20:24:17.043Z,10.86
2023-05-14T20:29:20.053Z,10.88
2023-05-14T20:34:23.352Z,10.75
2023-05-14T20:39:26.234Z,10.69
2023-05-14T20:44:29.185Z,10.64
2023-05-14T20:49:32.106Z,10.62
2023-05-14T20:54:35.117Z,10.60
2023-05-14T20:59:38.434Z,10.46
2023-05-14T21:04:41.529Z,10.46
2023-05-14T21:09:50.994Z,10.42
2023-05-14T21:14:54.159Z,10.38
2023-05-14T21:19:57.238Z,10.35
2023-05-14T21:25:00.386Z,10.33
2023-05-14T21:30:03.548Z,10.27
2023-05-14T21:35:09.329Z,10.32
2023-05-14T21:40:12.823Z,10.26
2023-05-14T21:45:15.775Z,10.22
2023-05-14T21:50:20.093Z,10.13
2023-05-14T21:55:23.679Z,10.21
2023-05-14T22:00:26.834Z,10.11
2023-05-14T22:05:29.736Z,10.03
2023-05-14T22:10:32.575Z,10.09
2023-05-14T22:15:35.606Z,10.03
2023-05-14T22:20:39.288Z,10.14
2023-05-14T22:25:42.327Z,10.08
2023-05-14T22:30:45.179Z,10.05
2023-05-14T22:35:48.278Z,9.95
2023-05-14T22:40:51.364Z,9.92
2023-05-14T22:45:54.268Z,9.92
2023-05-14T22:50:57.152Z,9.88
2023-05-14T22:56:00.023Z,9.86
2023-05-14T23:01:02.985Z,9.96
2023-05-14T23:06:06.142Z,9.89
2023-05-14T23:11:09.124Z,9.92
2023-05-14T23:16:12.075Z,9.86
2023-05-14T23:21:15.246Z,9.81
2023-05-14T23:26:18.272Z,9.78
2023-05-14T23:31:21.517Z,9.71
2023-05-14T23:36:24.686Z,9.72
2023-05-14T23:41:27.591Z,9.70
2023-05-14T23:46:30.590Z,9.65
2023-05-14T23:51:33.533Z,9.65
2023-05-14T23:56:36.512Z,9.66
